createdAt,value
2018-08-27T00:00:23.657Z,80.81
2018-08-27T00:01:23.895Z,82.34
2018-08-27T00:02:24.132Z,82.24
2018-08-27T00:03:24.373Z,83.73
2018-08-27T00:04:24.611Z,84.01
2018-08-27T00:05:24.851Z,84.78
2018-08-27T00:06:25.095Z,86.11
2018-08-27T00:07:25.327Z,86.21
2018-08-27T00:08:25.566Z,87.45
2018-08-27T00:09:25.806Z,87.83
2018-08-27T00:10:26.044Z,87.16
2018-08-27T00:11:26.283Z,86.78
2018-08-27T00:12:26.524Z,87.45
2018-08-27T00:13:26.764Z,87.93
2018-08-27T00:14:27.002Z,87.54
2018-08-27T00:15:27.239Z,87.74
2018-08-27T00:16:27.477Z,87.83
2018-08-27T00:17:27.716Z,87.54
2018-08-27T00:18:27.954Z,86.40
2018-08-27T00:19:28.194Z,84.40
2018-08-27T00:20:28.434Z,83.06
2018-08-27T00:21:28.673Z,82.82
2018-08-27T00:22:28.913Z,81.67
2018-08-27T00:23:29.148Z,81.63
2018-08-27T00:24:29.389Z,82.34
2018-08-27T00:25:29.690Z,81.38
2018-08-27T00:26:29.865Z,81.58
2018-08-27T00:27:30.101Z,81.38
2018-08-27T00:28:30.340Z,81.48
2018-08-27T00:29:30.581Z,81.63
2018-08-27T00:30:30.815Z,81.77
2018-08-27T00:31:31.054Z,80.62
2018-08-27T00:32:31.291Z,80.72
2018-08-27T00:33:31.528Z,80.33
2018-08-27T00:34:31.768Z,80.15
2018-08-27T00:35:32.004Z,79.77
2018-08-27T00:36:32.245Z,79.04
2018-08-27T00:37:32.485Z,78.85
2018-08-27T00:38:32.717Z,77.99
2018-08-27T00:39:32.957Z,77.89
2018-08-27T00:40:33.194Z,78.18
2018-08-27T00:41:33.431Z,77.99
2018-08-27T00:42:33.671Z,76.50
2018-08-27T00:43:33.910Z,76.98
2018-08-27T00:44:34.148Z,76.12
2018-08-27T00:45:34.389Z,75.45
2018-08-27T00:46:34.627Z,74.98
2018-08-27T00:47:34.865Z,75.16
2018-08-27T00:48:35.102Z,74.98
2018-08-27T00:49:35.343Z,74.98
2018-08-27T00:50:35.581Z,74.49
2018-08-27T00:51:35.824Z,74.30
2018-08-27T00:52:36.060Z,74.30
2018-08-27T00:53:36.304Z,73.73
2018-08-27T00:54:36.542Z,73.63
2018-08-27T00:55:36.782Z,73.63
2018-08-27T00:56:37.020Z,72.97
2018-08-27T00:57:37.259Z,72.68
2018-08-27T00:58:37.502Z,72.58
2018-08-27T00:59:37.740Z,72.30
2018-08-27T01:00:37.979Z,72.49
2018-08-27T01:01:38.219Z,72.68
2018-08-27T01:02:38.455Z,71.53
2018-08-27T01:03:38.692Z,72.05
2018-08-27T01:04:38.933Z,71.47
2018-08-27T01:05:39.169Z,71.86
2018-08-27T01:06:39.409Z,71.57
2018-08-27T01:07:39.648Z,71.09
2018-08-27T01:08:39.887Z,70.81
2018-08-27T01:09:40.129Z,70.52
2018-08-27T01:10:40.366Z,70.14
2018-08-27T01:11:40.605Z,70.71
2018-08-27T01:12:40.844Z,70.33
2018-08-27T01:13:41.089Z,69.95
2018-08-27T01:14:41.322Z,69.47
2018-08-27T01:15:41.564Z,69.27
2018-08-27T01:16:41.800Z,69.18
2018-08-27T01:17:42.041Z,69.18
2018-08-27T01:18:42.279Z,69.37
2018-08-27T01:19:42.521Z,69.47
2018-08-27T01:20:42.759Z,69.18
2018-08-27T01:21:42.999Z,69.09
2018-08-27T01:22:43.237Z,68.51
2018-08-27T01:23:43.479Z,68.32
2018-08-27T01:24:43.716Z,68.13
2018-08-27T01:25:43.957Z,67.65
2018-08-27T01:26:44.194Z,67.75
2018-08-27T01:27:44.440Z,68.41
2018-08-27T01:28:44.674Z,68.04
2018-08-27T01:29:44.913Z,67.84
2018-08-27T01:30:45.151Z,67.75
2018-08-27T01:31:45.389Z,67.84
2018-08-27T01:32:45.629Z,68.13
2018-08-27T01:33:45.867Z,68.13
2018-08-27T01:34:46.110Z,67.75
2018-08-27T01:35:46.347Z,67.55
2018-08-27T01:36:46.585Z,67.65
2018-08-27T01:37:46.826Z,67.55
2018-08-27T01:38:47.062Z,67.36
2018-08-27T01:39:47.302Z,67.55
2018-08-27T01:40:47.543Z,67.36
2018-08-27T01:41:47.782Z,67.65
2018-08-27T01:42:48.016Z,68.23
2018-08-27T01:43:48.252Z,68.61
2018-08-27T01:44:48.492Z,69.47
2018-08-27T01:45:48.732Z,69.27
2018-08-27T01:46:48.972Z,69.66
2018-08-27T01:47:49.209Z,70.04
2018-08-27T01:48:49.449Z,70.71
2018-08-27T01:49:49.692Z,70.81
2018-08-27T01:50:49.933Z,70.87
2018-08-27T01:51:50.171Z,71.25
2018-08-27T01:52:50.412Z,71.92
2018-08-27T01:53:50.650Z,71.82
2018-08-27T01:54:50.894Z,71.72
2018-08-27T01:55:51.128Z,71.63
2018-08-27T01:56:51.366Z,72.30
2018-08-27T01:57:51.606Z,72.78
2018-08-27T01:58:51.846Z,72.78
2018-08-27T01:59:52.087Z,73.54
2018-08-27T02:00:52.323Z,74.11
2018-08-27T02:01:52.564Z,74.21
2018-08-27T02:02:52.804Z,74.02
2018-08-27T02:03:53.042Z,74.21
2018-08-27T02:04:53.283Z,73.92
2018-08-27T02:05:53.524Z,73.54
2018-08-27T02:06:53.765Z,72.49
2018-08-27T02:07:54.003Z,71.82
2018-08-27T02:08:54.240Z,70.61
2018-08-27T02:09:54.483Z,70.71
2018-08-27T02:10:54.722Z,70.23
2018-08-27T02:11:54.962Z,69.95
2018-08-27T02:12:55.201Z,70.23
2018-08-27T02:13:55.442Z,70.33
2018-08-27T02:14:55.683Z,69.95
2018-08-27T02:15:55.924Z,69.95
2018-08-27T02:16:56.160Z,69.37
2018-08-27T02:17:56.401Z,69.18
2018-08-27T02:18:56.640Z,68.04
2018-08-27T02:19:56.881Z,67.78
2018-08-27T02:20:57.167Z,66.92
2018-08-27T02:21:57.362Z,66.44
2018-08-27T02:22:57.602Z,66.83
2018-08-27T02:23:57.842Z,67.11
2018-08-27T02:24:58.088Z,66.92
2018-08-27T02:25:58.438Z,66.83
2018-08-27T02:26:58.567Z,66.25
2018-08-27T02:27:58.805Z,66.63
2018-08-27T02:28:59.044Z,67.21
2018-08-27T02:29:59.283Z,67.21
2018-08-27T02:30:59.515Z,67.78
2018-08-27T02:31:59.750Z,67.49
2018-08-27T02:32:59.991Z,67.11
2018-08-27T02:34:00.230Z,67.02
2018-08-27T02:35:00.508Z,66.73
2018-08-27T02:36:00.708Z,67.21
2018-08-27T02:37:00.953Z,65.97
2018-08-27T02:38:01.190Z,65.33
2018-08-27T02:39:01.431Z,64.09
2018-08-27T02:40:01.673Z,62.37
2018-08-27T02:41:01.916Z,61.44
2018-08-27T02:42:02.156Z,61.05
2018-08-27T02:43:02.395Z,60.48
2018-08-27T02:44:02.636Z,60.29
2018-08-27T02:45:02.881Z,60.19
2018-08-27T02:46:03.121Z,60.19
2018-08-27T02:47:03.361Z,60.38
2018-08-27T02:48:03.600Z,60.48
2018-08-27T02:49:03.840Z,60.48
2018-08-27T02:50:04.081Z,60.29
2018-08-27T02:51:04.322Z,60.38
2018-08-27T02:52:04.565Z,60.38
2018-08-27T02:53:04.809Z,60.38
2018-08-27T02:54:05.055Z,59.91
2018-08-27T02:55:05.294Z,60.10
2018-08-27T02:56:05.532Z,59.43
2018-08-27T02:57:05.772Z,59.62
2018-08-27T02:58:06.013Z,59.52
2018-08-27T02:59:06.258Z,59.43
2018-08-27T03:00:06.495Z,59.43
2018-08-27T03:01:06.735Z,59.43
2018-08-27T03:02:06.975Z,59.72
2018-08-27T03:03:07.213Z,60.10
2018-08-27T03:04:07.455Z,59.91
2018-08-27T03:05:07.694Z,60.29
2018-08-27T03:06:07.924Z,60.19
2018-08-27T03:07:08.171Z,60.29
2018-08-27T03:08:08.416Z,60.38
2018-08-27T03:09:08.652Z,60.38
2018-08-27T03:10:08.892Z,60.29
2018-08-27T03:11:09.133Z,60.77
2018-08-27T03:12:09.373Z,60.86
2018-08-27T03:13:09.613Z,60.67
2018-08-27T03:14:09.855Z,60.96
2018-08-27T03:15:10.097Z,60.96
2018-08-27T03:16:10.337Z,60.96
2018-08-27T03:17:10.576Z,61.05
2018-08-27T03:18:10.807Z,61.54
2018-08-27T03:19:11.049Z,60.96
2018-08-27T03:20:11.287Z,61.25
2018-08-27T03:21:11.529Z,61.25
2018-08-27T03:22:11.765Z,61.63
2018-08-27T03:23:12.007Z,63.83
2018-08-27T03:24:12.246Z,69.15
2018-08-27T03:25:12.486Z,68.77
2018-08-27T03:26:12.727Z,69.25
2018-08-27T03:27:12.968Z,70.30
2018-08-27T03:28:13.206Z,69.64
2018-08-27T03:29:13.447Z,69.92
2018-08-27T03:30:13.687Z,68.96
2018-08-27T03:31:13.930Z,68.58
2018-08-27T03:32:14.171Z,68.77
2018-08-27T03:33:14.410Z,68.10
2018-08-27T03:34:14.651Z,67.53
2018-08-27T03:35:14.892Z,66.57
2018-08-27T03:36:15.142Z,66.76
2018-08-27T03:37:15.383Z,65.90
2018-08-27T03:38:15.623Z,65.52
2018-08-27T03:39:15.863Z,65.55
2018-08-27T03:40:16.105Z,64.98
2018-08-27T03:41:16.344Z,65.08
2018-08-27T03:42:16.583Z,64.98
2018-08-27T03:43:16.822Z,65.08
2018-08-27T03:44:17.062Z,64.22
2018-08-27T03:45:17.303Z,63.93
2018-08-27T03:46:17.542Z,62.68
2018-08-27T03:47:17.782Z,63.26
2018-08-27T03:48:18.022Z,62.97
2018-08-27T03:49:18.263Z,62.87
2018-08-27T03:50:18.492Z,62.59
2018-08-27T03:51:18.751Z,62.40
2018-08-27T03:52:18.993Z,61.82
2018-08-27T03:53:19.234Z,61.82
2018-08-27T03:54:19.474Z,61.91
2018-08-27T03:55:19.719Z,61.82
2018-08-27T03:56:19.954Z,61.82
2018-08-27T03:57:20.197Z,61.63
2018-08-27T03:58:20.436Z,62.20
2018-08-27T03:59:20.678Z,62.11
2018-08-27T04:00:20.914Z,62.40
2018-08-27T04:01:21.161Z,62.01
2018-08-27T04:02:21.395Z,61.54
2018-08-27T04:03:21.636Z,61.82
2018-08-27T04:04:21.886Z,62.40
2018-08-27T04:05:22.198Z,62.49
2018-08-27T04:06:22.355Z,62.30
2018-08-27T04:07:22.595Z,62.11
2018-08-27T04:08:22.837Z,62.40
2018-08-27T04:09:23.075Z,62.87
2018-08-27T04:10:23.315Z,63.35
2018-08-27T04:11:23.554Z,63.83
2018-08-27T04:12:23.795Z,63.93
2018-08-27T04:13:24.034Z,64.40
2018-08-27T04:14:24.275Z,65.14
2018-08-27T04:15:24.516Z,65.52
2018-08-27T04:16:24.763Z,64.85
2018-08-27T04:17:25.005Z,65.42
2018-08-27T04:18:25.241Z,65.23
2018-08-27T04:19:25.480Z,65.33
2018-08-27T04:20:25.720Z,65.42
2018-08-27T04:21:25.961Z,64.95
2018-08-27T04:22:26.202Z,64.85
2018-08-27T04:23:26.442Z,65.33
2018-08-27T04:24:26.683Z,65.42
2018-08-27T04:25:26.922Z,64.95
2018-08-27T04:26:27.162Z,65.04
2018-08-27T04:27:27.401Z,64.85
2018-08-27T04:28:27.644Z,65.33
2018-08-27T04:29:27.882Z,65.33
2018-08-27T04:30:28.122Z,65.14
2018-08-27T04:31:28.364Z,65.52
2018-08-27T04:32:28.605Z,65.23
2018-08-27T04:33:28.852Z,65.45
2018-08-27T04:34:29.087Z,65.52
2018-08-27T04:35:29.329Z,65.42
2018-08-27T04:36:29.569Z,65.08
2018-08-27T04:37:29.821Z,65.26
2018-08-27T04:38:30.065Z,65.45
2018-08-27T04:39:30.310Z,65.42
2018-08-27T04:40:30.540Z,64.98
2018-08-27T04:41:30.765Z,64.69
2018-08-27T04:42:31.037Z,65.45
2018-08-27T04:43:31.266Z,65.08
2018-08-27T04:44:31.503Z,64.22
2018-08-27T04:45:31.713Z,64.40
2018-08-27T04:46:31.949Z,63.93
2018-08-27T04:47:32.182Z,63.93
2018-08-27T04:48:32.431Z,64.40
2018-08-27T04:49:32.659Z,64.50
2018-08-27T04:50:32.908Z,65.08
2018-08-27T04:51:33.158Z,64.88
2018-08-27T04:52:33.420Z,65.26
2018-08-27T04:53:33.635Z,65.26
2018-08-27T04:54:33.859Z,65.45
2018-08-27T04:55:34.122Z,64.98
2018-08-27T04:56:34.329Z,65.74
2018-08-27T04:57:34.564Z,66.13
2018-08-27T04:58:34.805Z,66.99
2018-08-27T04:59:35.044Z,68.29
2018-08-27T05:00:35.316Z,67.91
2018-08-27T05:01:35.546Z,66.51
2018-08-27T05:02:35.782Z,66.32
2018-08-27T05:03:36.047Z,66.80
2018-08-27T05:04:36.260Z,66.89
2018-08-27T05:05:36.507Z,66.80
2018-08-27T05:06:36.741Z,66.89
2018-08-27T05:07:36.966Z,66.61
2018-08-27T05:08:37.204Z,66.70
2018-08-27T05:09:37.434Z,66.13
2018-08-27T05:10:37.681Z,66.03
2018-08-27T05:11:37.927Z,65.94
2018-08-27T05:12:38.197Z,65.74
2018-08-27T05:13:38.439Z,65.84
2018-08-27T05:14:38.689Z,65.94
2018-08-27T05:15:38.947Z,65.65
2018-08-27T05:16:39.176Z,65.74
2018-08-27T05:17:39.416Z,65.45
2018-08-27T05:18:39.673Z,65.84
2018-08-27T05:19:39.925Z,66.03
2018-08-27T05:20:40.168Z,66.03
2018-08-27T05:21:40.389Z,66.70
2018-08-27T05:22:40.644Z,66.89
2018-08-27T05:23:40.885Z,67.37
2018-08-27T05:24:41.112Z,67.47
2018-08-27T05:25:41.349Z,67.66
2018-08-27T05:26:41.585Z,67.76
2018-08-27T05:27:41.833Z,68.04
2018-08-27T05:28:42.092Z,68.33
2018-08-27T05:29:42.422Z,68.62
2018-08-27T05:30:42.679Z,68.90
2018-08-27T05:31:42.890Z,69.86
2018-08-27T05:32:43.131Z,69.57
2018-08-27T05:33:43.379Z,70.24
2018-08-27T05:34:43.650Z,70.34
2018-08-27T05:35:43.853Z,71.87
2018-08-27T05:36:44.098Z,72.25
2018-08-27T05:37:44.325Z,74.32
2018-08-27T05:38:44.559Z,75.27
2018-08-27T05:39:44.820Z,76.04
2018-08-27T05:40:45.055Z,77.28
2018-08-27T05:41:45.291Z,80.06
2018-08-27T05:42:45.535Z,81.97
2018-08-27T05:43:45.769Z,83.79
2018-08-27T05:44:46.008Z,85.51
2018-08-27T05:45:46.250Z,86.66
2018-08-27T05:46:46.486Z,87.43
2018-08-27T05:47:46.736Z,87.71
2018-08-27T05:48:46.959Z,87.62
2018-08-27T05:49:47.202Z,87.62
2018-08-27T05:50:47.447Z,88.00
2018-08-27T05:51:47.677Z,87.90
2018-08-27T05:52:47.914Z,87.14
2018-08-27T05:53:48.157Z,87.23
2018-08-27T05:54:48.385Z,87.14
2018-08-27T05:55:48.629Z,86.28
2018-08-27T05:56:48.864Z,85.22
2018-08-27T05:57:49.097Z,84.46
2018-08-27T05:58:49.326Z,83.98
2018-08-27T05:59:49.589Z,82.93
2018-08-27T06:00:49.829Z,81.78
2018-08-27T06:01:50.083Z,82.35
2018-08-27T06:02:50.303Z,81.92
2018-08-27T06:03:50.548Z,82.11
2018-08-27T06:04:50.770Z,82.20
2018-08-27T06:05:50.999Z,83.26
2018-08-27T06:06:51.254Z,82.97
2018-08-27T06:07:51.493Z,83.20
2018-08-27T06:08:51.728Z,83.30
2018-08-27T06:09:51.962Z,82.92
2018-08-27T06:10:52.257Z,83.87
2018-08-27T06:11:52.457Z,83.87
2018-08-27T06:12:52.711Z,84.26
2018-08-27T06:13:52.925Z,83.87
2018-08-27T06:14:53.162Z,83.68
2018-08-27T06:15:53.401Z,83.68
2018-08-27T06:16:53.661Z,83.53
2018-08-27T06:17:53.872Z,83.34
2018-08-27T06:18:54.113Z,84.01
2018-08-27T06:19:54.349Z,83.72
2018-08-27T06:20:54.588Z,83.82
2018-08-27T06:21:54.898Z,83.34
2018-08-27T06:22:55.054Z,82.38
2018-08-27T06:23:55.305Z,80.76
2018-08-27T06:24:55.547Z,80.66
2018-08-27T06:25:55.765Z,80.85
2018-08-27T06:26:56.015Z,80.94
2018-08-27T06:27:56.255Z,80.18
2018-08-27T06:28:56.503Z,80.37
2018-08-27T06:29:56.710Z,80.85
2018-08-27T06:30:56.961Z,80.47
2018-08-27T06:31:57.212Z,81.13
2018-08-27T06:32:57.434Z,80.94
2018-08-27T06:33:57.664Z,80.66
2018-08-27T06:34:57.912Z,82.09
2018-08-27T06:35:58.161Z,82.57
2018-08-27T06:36:58.409Z,82.19
2018-08-27T06:37:58.729Z,81.81
2018-08-27T06:38:58.932Z,82.29
2018-08-27T06:39:59.135Z,81.71
2018-08-27T06:40:59.372Z,80.56
2018-08-27T06:41:59.611Z,79.41
2018-08-27T06:42:59.848Z,78.07
2018-08-27T06:44:00.092Z,76.19
2018-08-27T06:45:00.344Z,75.23
2018-08-27T06:46:00.555Z,74.57
2018-08-27T06:47:00.791Z,73.70
2018-08-27T06:48:01.062Z,72.45
2018-08-27T06:49:01.257Z,72.45
2018-08-27T06:50:01.511Z,72.49
2018-08-27T06:51:01.747Z,72.07
2018-08-27T06:52:01.993Z,70.83
2018-08-27T06:53:02.233Z,70.73
2018-08-27T06:54:02.476Z,70.86
2018-08-27T06:55:02.715Z,69.71
2018-08-27T06:56:02.963Z,69.58
2018-08-27T06:57:03.199Z,69.20
2018-08-27T06:58:03.449Z,69.20
2018-08-27T06:59:03.682Z,69.20
2018-08-27T07:00:03.925Z,69.29
2018-08-27T07:01:04.165Z,70.15
2018-08-27T07:02:04.404Z,69.39
2018-08-27T07:03:04.644Z,68.72
2018-08-27T07:04:04.889Z,69.10
2018-08-27T07:05:05.130Z,69.58
2018-08-27T07:06:05.374Z,68.14
2018-08-27T07:07:05.608Z,68.62
2018-08-27T07:08:05.851Z,67.95
2018-08-27T07:09:06.092Z,68.14
2018-08-27T07:10:06.339Z,67.85
2018-08-27T07:11:15.201Z,67.38
2018-08-27T07:12:06.948Z,68.62
2018-08-27T07:13:07.193Z,67.95
2018-08-27T07:14:07.436Z,68.62
2018-08-27T07:15:07.678Z,68.43
2018-08-27T07:16:07.915Z,68.72
2018-08-27T07:17:08.159Z,68.81
2018-08-27T07:18:08.395Z,69.10
2018-08-27T07:19:08.638Z,68.33
2018-08-27T07:20:08.891Z,68.62
2018-08-27T07:21:09.124Z,68.43
2018-08-27T07:22:09.355Z,68.24
2018-08-27T07:23:09.593Z,68.24
2018-08-27T07:24:09.828Z,68.81
2018-08-27T07:25:10.072Z,68.85
2018-08-27T07:26:10.303Z,68.27
2018-08-27T07:27:10.555Z,68.18
2018-08-27T07:28:10.796Z,67.99
2018-08-27T07:29:11.035Z,68.21
2018-08-27T07:30:11.275Z,68.46
2018-08-27T07:31:11.508Z,68.88
2018-08-27T07:32:11.749Z,69.17
2018-08-27T07:33:11.995Z,69.17
2018-08-27T07:34:12.240Z,70.03
2018-08-27T07:35:12.488Z,71.09
2018-08-27T07:36:12.760Z,72.59
2018-08-27T07:37:12.979Z,73.55
2018-08-27T07:38:13.226Z,74.41
2018-08-27T07:39:13.465Z,74.02
2018-08-27T07:40:13.711Z,75.08
2018-08-27T07:41:13.947Z,74.41
2018-08-27T07:42:14.207Z,74.06
2018-08-27T07:43:14.428Z,75.08
2018-08-27T07:44:14.666Z,75.18
2018-08-27T07:45:14.907Z,74.79
2018-08-27T07:46:15.157Z,76.62
2018-08-27T07:47:15.395Z,76.32
2018-08-27T07:48:15.638Z,76.37
2018-08-27T07:49:15.880Z,74.98
2018-08-27T07:50:16.127Z,74.83
2018-08-27T07:51:16.415Z,75.27
2018-08-27T07:52:16.624Z,75.65
2018-08-27T07:53:16.862Z,75.46
2018-08-27T07:54:17.100Z,75.37
2018-08-27T07:55:17.344Z,75.27
2018-08-27T07:56:17.588Z,75.37
2018-08-27T07:57:17.834Z,84.00
2018-08-27T07:58:18.094Z,89.13
2018-08-27T07:59:18.314Z,89.32
2018-08-27T08:00:18.555Z,89.23
2018-08-27T08:01:18.797Z,89.04
2018-08-27T08:02:19.040Z,89.65
2018-08-27T08:03:19.332Z,83.04
2018-08-27T08:04:19.525Z,78.28
2018-08-27T08:05:19.771Z,75.70
2018-08-27T08:06:20.014Z,73.81
2018-08-27T08:07:20.308Z,71.57
2018-08-27T08:08:20.499Z,71.57
2018-08-27T08:09:20.742Z,71.41
2018-08-27T08:10:20.985Z,69.59
2018-08-27T08:11:21.227Z,69.01
2018-08-27T08:12:21.472Z,68.44
2018-08-27T08:13:21.720Z,67.96
2018-08-27T08:14:21.963Z,67.96
2018-08-27T08:15:22.209Z,68.91
2018-08-27T08:16:22.453Z,67.86
2018-08-27T08:17:22.697Z,67.57
2018-08-27T08:18:22.944Z,67.96
2018-08-27T08:19:23.183Z,67.76
2018-08-27T08:20:23.427Z,67.13
2018-08-27T08:21:23.683Z,66.10
2018-08-27T08:22:23.915Z,64.63
2018-08-27T08:23:24.163Z,64.18
2018-08-27T08:24:24.405Z,63.51
2018-08-27T08:25:24.649Z,63.60
2018-08-27T08:26:24.891Z,62.58
2018-08-27T08:27:25.137Z,62.93
2018-08-27T08:28:25.391Z,63.54
2018-08-27T08:29:25.627Z,63.70
2018-08-27T08:30:25.868Z,63.70
2018-08-27T08:31:26.119Z,64.76
2018-08-27T08:32:26.358Z,65.62
2018-08-27T08:33:26.609Z,65.66
2018-08-27T08:34:26.847Z,65.53
2018-08-27T08:35:27.091Z,66.14
2018-08-27T08:36:27.337Z,66.30
2018-08-27T08:37:27.584Z,67.35
2018-08-27T08:38:27.830Z,70.29
2018-08-27T08:39:28.079Z,72.12
2018-08-27T08:40:28.324Z,71.55
2018-08-27T08:41:28.571Z,72.02
2018-08-27T08:42:28.817Z,72.12
2018-08-27T08:43:29.061Z,73.18
2018-08-27T08:44:29.327Z,75.00
2018-08-27T08:45:29.549Z,76.40
2018-08-27T08:46:29.794Z,77.50
2018-08-27T08:47:30.039Z,80.24
2018-08-27T08:48:30.283Z,82.26
2018-08-27T08:49:30.530Z,84.81
2018-08-27T08:50:30.775Z,86.54
2018-08-27T08:51:31.020Z,87.78
2018-08-27T08:52:31.263Z,87.49
2018-08-27T08:53:31.532Z,88.84
2018-08-27T08:54:31.742Z,91.05
2018-08-27T08:55:31.988Z,93.25
2018-08-27T08:56:32.235Z,95.98
2018-08-27T08:57:32.479Z,97.04
2018-08-27T08:58:32.723Z,97.71
2018-08-27T08:59:32.981Z,99.15
2018-08-27T09:00:33.216Z,99.34
2018-08-27T09:01:33.522Z,99.34
2018-08-27T09:02:33.702Z,99.82
2018-08-27T09:03:33.949Z,99.91
2018-08-27T09:04:34.190Z,99.99
2018-08-27T09:05:34.439Z,99.99
2018-08-27T09:06:34.681Z,99.87
2018-08-27T09:07:34.925Z,99.39
2018-08-27T09:08:35.250Z,99.68
2018-08-27T09:09:35.413Z,99.10
2018-08-27T09:10:35.657Z,98.14
2018-08-27T09:11:35.900Z,96.61
2018-08-27T09:12:36.143Z,95.41
2018-08-27T09:13:36.385Z,94.07
2018-08-27T09:14:36.629Z,92.63
2018-08-27T09:15:44.495Z,90.14
2018-08-27T09:16:37.201Z,87.84
2018-08-27T09:17:37.445Z,84.11
2018-08-27T09:18:37.655Z,81.13
2018-08-27T09:19:37.897Z,76.02
2018-08-27T09:20:38.138Z,74.11
2018-08-27T09:21:38.380Z,68.46
2018-08-27T09:22:38.621Z,66.64
2018-08-27T09:23:38.908Z,61.94
2018-08-27T09:24:39.105Z,59.91
2018-08-27T09:25:39.347Z,54.45
2018-08-27T09:26:39.587Z,49.76
2018-08-27T09:27:39.831Z,44.79
2018-08-27T09:28:40.072Z,42.85
2018-08-27T09:29:40.313Z,40.17
2018-08-27T09:30:40.556Z,33.69
2018-08-27T09:31:40.797Z,31.77
2018-08-27T09:32:41.044Z,29.47
2018-08-27T09:33:41.277Z,31.48
2018-08-27T09:34:41.520Z,27.45
2018-08-27T09:35:41.763Z,26.11
2018-08-27T09:36:42.000Z,22.67
2018-08-27T09:37:42.345Z,20.00
2018-08-27T09:38:42.483Z,23.83
2018-08-27T09:39:42.724Z,21.53
2018-08-27T09:40:42.964Z,23.16
2018-08-27T09:41:43.303Z,26.79
2018-08-27T09:42:43.447Z,23.44
2018-08-27T09:43:43.689Z,21.53
2018-08-27T09:44:43.931Z,21.05
2018-08-27T09:45:44.181Z,24.59
2018-08-27T09:46:44.446Z,24.30
2018-08-27T09:47:44.655Z,20.00
2018-08-27T09:48:44.898Z,16.65
2018-08-27T09:49:45.144Z,15.59
2018-08-27T09:50:45.395Z,14.73
2018-08-27T09:51:45.637Z,15.22
2018-08-27T09:52:45.932Z,15.59
2018-08-27T09:53:46.120Z,16.46
2018-08-27T09:54:46.362Z,16.84
2018-08-27T09:55:46.604Z,14.83
2018-08-27T09:56:46.843Z,12.05
2018-08-27T09:57:47.081Z,16.56
2018-08-27T09:58:47.363Z,16.75
2018-08-27T09:59:47.562Z,19.05
2018-08-27T10:00:47.804Z,27.48
2018-08-27T10:01:48.039Z,29.11
2018-08-27T10:02:48.300Z,24.80
2018-08-27T10:03:48.540Z,31.42
2018-08-27T10:04:48.783Z,33.33
2018-08-27T10:05:49.024Z,36.00
2018-08-27T10:06:49.267Z,36.57
2018-08-27T10:07:49.508Z,30.94
2018-08-27T10:08:49.806Z,32.17
2018-08-27T10:09:49.991Z,27.38
2018-08-27T10:10:50.232Z,22.89
2018-08-27T10:11:50.477Z,28.24
2018-08-27T10:12:50.717Z,29.11
2018-08-27T10:13:50.959Z,27.28
2018-08-27T10:14:51.207Z,29.49
2018-08-27T10:15:51.440Z,26.33
2018-08-27T10:16:51.685Z,29.11
2018-08-27T10:17:51.922Z,29.30
2018-08-27T10:18:52.166Z,31.59
2018-08-27T10:19:52.408Z,32.17
2018-08-27T10:20:52.650Z,29.49
2018-08-27T10:21:52.892Z,29.38
2018-08-27T10:22:53.133Z,25.66
2018-08-27T10:23:53.377Z,27.47
2018-08-27T10:24:53.621Z,27.66
2018-08-27T10:25:53.861Z,29.47
2018-08-27T10:26:54.104Z,31.20
2018-08-27T10:27:54.343Z,25.74
2018-08-27T10:28:54.585Z,25.45
2018-08-27T10:29:54.837Z,22.01
2018-08-27T10:30:55.073Z,25.74
2018-08-27T10:31:55.313Z,26.22
2018-08-27T10:32:55.549Z,28.63
2018-08-27T10:33:55.791Z,26.62
2018-08-27T10:34:56.034Z,26.23
2018-08-27T10:35:56.279Z,30.93
2018-08-27T10:36:56.522Z,32.84
2018-08-27T10:37:56.765Z,35.41
2018-08-27T10:38:57.005Z,32.15
2018-08-27T10:39:57.241Z,33.78
2018-08-27T10:40:57.488Z,32.73
2018-08-27T10:41:57.728Z,33.87
2018-08-27T10:42:58.227Z,38.95
2018-08-27T10:43:58.206Z,35.31
2018-08-27T10:44:58.448Z,34.64
2018-08-27T10:45:58.691Z,36.36
2018-08-27T10:46:58.931Z,32.25
2018-08-27T10:47:59.176Z,31.67
2018-08-27T10:48:59.417Z,33.97
2018-08-27T10:49:59.682Z,34.74
2018-08-27T10:50:59.900Z,31.96
2018-08-27T10:52:00.143Z,34.83
2018-08-27T10:53:00.381Z,36.84
2018-08-27T10:54:00.625Z,37.41
2018-08-27T10:55:00.864Z,37.04
2018-08-27T10:56:01.104Z,38.87
2018-08-27T10:57:01.347Z,39.16
2018-08-27T10:58:01.584Z,40.78
2018-08-27T10:59:01.823Z,43.08
2018-08-27T11:00:02.069Z,44.52
2018-08-27T11:01:02.313Z,48.07
2018-08-27T11:02:02.549Z,45.67
2018-08-27T11:03:02.788Z,50.58
2018-08-27T11:04:03.035Z,52.09
2018-08-27T11:05:03.297Z,51.03
2018-08-27T11:06:03.519Z,48.54
2018-08-27T11:07:03.760Z,54.41
2018-08-27T11:08:04.000Z,51.89
2018-08-27T11:09:04.242Z,50.87
2018-08-27T11:10:04.487Z,54.70
2018-08-27T11:11:04.730Z,59.11
2018-08-27T11:12:04.977Z,59.39
2018-08-27T11:13:05.219Z,61.69
2018-08-27T11:14:05.459Z,59.68
2018-08-27T11:15:05.701Z,63.51
2018-08-27T11:16:06.005Z,62.26
2018-08-27T11:17:06.183Z,63.13
2018-08-27T11:18:06.427Z,63.80
2018-08-27T11:19:06.666Z,64.85
2018-08-27T11:20:06.923Z,63.42
2018-08-27T11:21:07.154Z,69.17
2018-08-27T11:22:07.395Z,66.19
2018-08-27T11:23:07.643Z,65.81
2018-08-27T11:24:07.885Z,64.18
2018-08-27T11:25:08.129Z,65.81
2018-08-27T11:26:08.425Z,66.38
2018-08-27T11:27:08.616Z,66.29
2018-08-27T11:28:08.852Z,69.17
2018-08-27T11:29:09.098Z,66.09
2018-08-27T11:30:09.341Z,68.43
2018-08-27T11:31:09.581Z,69.01
2018-08-27T11:32:09.828Z,72.07
2018-08-27T11:33:10.063Z,70.73
2018-08-27T11:34:10.309Z,70.35
2018-08-27T11:35:10.549Z,70.54
2018-08-27T11:36:10.811Z,72.36
2018-08-27T11:37:11.027Z,69.01
2018-08-27T11:38:11.266Z,69.29
2018-08-27T11:39:11.510Z,69.48
2018-08-27T11:40:11.753Z,68.52
2018-08-27T11:41:11.994Z,68.14
2018-08-27T11:42:12.224Z,68.11
2018-08-27T11:43:12.539Z,65.91
2018-08-27T11:44:12.729Z,64.56
2018-08-27T11:45:12.964Z,65.81
2018-08-27T11:46:13.205Z,65.52
2018-08-27T11:47:13.448Z,65.42
2018-08-27T11:48:13.697Z,64.56
2018-08-27T11:49:13.935Z,63.70
2018-08-27T11:50:14.196Z,62.36
2018-08-27T11:51:14.417Z,61.21
2018-08-27T11:52:14.659Z,61.02
2018-08-27T11:53:14.900Z,61.69
2018-08-27T11:54:15.144Z,61.98
2018-08-27T11:55:15.384Z,61.98
2018-08-27T11:56:15.626Z,59.58
2018-08-27T11:57:15.867Z,59.39
2018-08-27T11:58:16.110Z,58.62
2018-08-27T11:59:16.353Z,58.62
2018-08-27T12:00:16.599Z,57.38
2018-08-27T12:01:16.871Z,57.09
2018-08-27T12:02:17.146Z,57.86
2018-08-27T12:03:17.319Z,57.67
2018-08-27T12:04:17.561Z,58.15
2018-08-27T12:05:17.803Z,59.48
2018-08-27T12:06:18.045Z,59.97
2018-08-27T12:07:18.287Z,59.77
2018-08-27T12:08:18.529Z,59.11
2018-08-27T12:09:18.770Z,60.73
2018-08-27T12:10:19.012Z,60.93
2018-08-27T12:11:19.256Z,61.31
2018-08-27T12:12:19.497Z,60.83
2018-08-27T12:13:19.738Z,62.07
2018-08-27T12:14:19.979Z,62.36
2018-08-27T12:15:20.220Z,61.88
2018-08-27T12:16:20.462Z,61.50
2018-08-27T12:17:20.698Z,59.68
2018-08-27T12:18:20.940Z,59.97
2018-08-27T12:19:21.198Z,60.64
2018-08-27T12:20:21.438Z,63.32
2018-08-27T12:21:21.766Z,62.26
2018-08-27T12:22:21.949Z,62.26
2018-08-27T12:23:22.188Z,61.69
2018-08-27T12:24:22.434Z,62.36
2018-08-27T12:25:22.673Z,61.98
2018-08-27T12:26:22.915Z,61.31
2018-08-27T12:27:23.167Z,61.60
2018-08-27T12:28:23.448Z,61.98
2018-08-27T12:29:23.693Z,62.46
2018-08-27T12:30:23.973Z,63.54
2018-08-27T12:31:24.263Z,63.16
2018-08-27T12:32:24.507Z,64.56
2018-08-27T12:33:24.822Z,66.13
2018-08-27T12:34:25.029Z,66.89
2018-08-27T12:35:25.361Z,66.32
2018-08-27T12:36:25.606Z,67.95
2018-08-27T12:37:25.848Z,66.03
2018-08-27T12:38:26.094Z,70.25
2018-08-27T12:39:26.332Z,69.20
2018-08-27T12:40:26.631Z,69.20
2018-08-27T12:41:26.815Z,70.64
2018-08-27T12:42:27.128Z,72.36
2018-08-27T12:43:27.468Z,71.25
2018-08-27T12:44:27.681Z,70.67
2018-08-27T12:45:27.952Z,72.30
2018-08-27T12:46:28.202Z,73.55
2018-08-27T12:47:28.443Z,74.51
2018-08-27T12:48:28.684Z,75.56
2018-08-27T12:49:28.929Z,75.18
2018-08-27T12:50:29.172Z,74.22
2018-08-27T12:51:29.419Z,72.49
2018-08-27T12:52:29.657Z,72.68
2018-08-27T12:53:29.912Z,73.35
2018-08-27T12:54:30.186Z,74.02
2018-08-27T12:55:30.453Z,74.69